Time;durP1;ratioP1;P1;durP2;ratioP2;P2;SDS_P1;SDS_P2;PMS_P1;PMS_P2;Temp;Humidity;BMP_temperature;BMP_pressure;BME280_temperature;BME280_humidity;BME280_pressure;Samples;Min_cycle;Max_cycle;Signal;HPM_P1;HPM_P2
2022/12/12 00:01:22;;;;;;;22.23;15.25;;;-0.10;1.00;;;;;;5097160;28;20221;-78
2022/12/12 00:03:51;;;;;;;21.08;14.25;;;0.00;1.00;;;;;;5093048;27;20211;-80
2022/12/12 00:06:20;;;;;;;21.52;14.48;;;-0.10;99.90;;;;;;5099151;28;20191;-78
2022/12/12 00:08:49;;;;;;;24.98;15.15;;;-0.20;99.90;;;;;;5092686;28;20249;-80
2022/12/12 00:11:18;;;;;;;24.48;14.68;;;-0.10;1.00;;;;;;5100958;27;20336;-80
2022/12/12 00:13:48;;;;;;;23.17;15.32;;;-0.20;1.00;;;;;;5097056;27;20512;-79
2022/12/12 00:16:16;;;;;;;26.15;15.73;;;-0.10;1.00;;;;;;5094191;28;20188;-78
2022/12/12 00:18:44;;;;;;;23.70;14.65;;;-0.10;1.00;;;;;;5100058;27;20200;-78
2022/12/12 00:21:15;;;;;;;20.05;14.32;;;-0.20;1.00;;;;;;5097800;27;20253;-78
2022/12/12 00:23:43;;;;;;;21.10;14.05;;;-0.10;99.90;;;;;;5094168;27;20211;-79
2022/12/12 00:26:16;;;;;;;21.00;13.73;;;-0.10;99.90;;;;;;5094971;27;20252;-80
2022/12/12 00:28:44;;;;;;;23.08;14.10;;;-0.10;99.90;;;;;;5092089;28;20417;-79
2022/12/12 00:31:14;;;;;;;22.60;12.98;;;-0.10;42.20;;;;;;5088292;28;20215;-80
2022/12/12 00:33:43;;;;;;;16.83;11.73;;;-0.10;1.00;;;;;;5093191;28;20223;-80
2022/12/12 00:36:12;;;;;;;16.77;11.98;;;0.00;1.00;;;;;;5096801;28;20195;-81
2022/12/12 00:38:40;;;;;;;16.70;11.48;;;-0.10;99.90;;;;;;5096360;27;20191;-80
2022/12/12 00:41:09;;;;;;;15.85;11.13;;;-0.20;99.90;;;;;;5088244;28;20203;-81
2022/12/12 00:43:37;;;;;;;18.20;12.63;;;-0.20;99.90;;;;;;5093798;27;20219;-81
2022/12/12 00:46:06;;;;;;;16.88;10.65;;;-0.20;99.90;;;;;;5093445;28;20200;-80
2022/12/12 00:48:36;;;;;;;19.55;12.82;;;-0.20;99.90;;;;;;5101357;27;20824;-80
2022/12/12 00:51:09;;;;;;;18.95;12.30;;;-0.20;99.90;;;;;;5100239;28;20686;-79
2022/12/12 00:53:38;;;;;;;18.83;12.10;;;-0.10;99.90;;;;;;5094192;28;20225;-80
2022/12/12 00:56:07;;;;;;;21.23;12.90;;;-0.20;99.90;;;;;;5089339;27;20673;-79
2022/12/12 00:58:36;;;;;;;17.73;12.60;;;-0.10;1.00;;;;;;5095337;28;20222;-78
2022/12/12 01:01:08;;;;;;;18.10;12.75;;;-0.10;99.90;;;;;;5089112;28;20712;-78
2022/12/12 01:03:40;;;;;;;20.08;12.35;;;-0.10;99.90;;;;;;5095204;28;20309;-80
2022/12/12 01:06:09;;;;;;;18.42;11.90;;;-0.10;99.90;;;;;;5100536;27;20244;-80
2022/12/12 01:08:38;;;;;;;19.15;12.57;;;-0.20;99.90;;;;;;5093968;27;20711;-80
2022/12/12 01:11:07;;;;;;;25.33;14.82;;;-0.20;1.00;;;;;;5095696;28;20223;-80
2022/12/12 01:13:36;;;;;;;19.67;12.45;;;-0.30;1.00;;;;;;5097360;28;20218;-79
2022/12/12 01:16:05;;;;;;;20.05;12.75;;;-0.30;1.00;;;;;;5099110;28;20283;-81
2022/12/12 01:18:33;;;;;;;18.90;12.88;;;-0.30;1.00;;;;;;5092566;27;20210;-79
2022/12/12 01:21:03;;;;;;;21.58;12.68;;;-0.30;1.00;;;;;;5092204;28;20236;-79
2022/12/12 01:23:31;;;;;;;19.50;12.70;;;-0.40;1.00;;;;;;5094276;27;20326;-80
2022/12/12 01:26:00;;;;;;;20.23;12.90;;;-0.40;8.00;;;;;;5094688;28;20199;-80
2022/12/12 01:28:28;;;;;;;22.85;14.32;;;-0.40;37.20;;;;;;5094824;28;20230;-80
2022/12/12 01:30:57;;;;;;;18.38;13.43;;;-0.50;1.00;;;;;;5095839;28;20215;-79
2022/12/12 01:33:25;;;;;;;22.30;14.35;;;-0.50;99.90;;;;;;5092613;28;20218;-81
2022/12/12 01:35:54;;;;;;;21.30;12.98;;;-0.50;99.90;;;;;;5096694;28;20210;-82
2022/12/12 01:38:24;;;;;;;17.83;12.75;;;-0.60;17.90;;;;;;5097731;28;20204;-79
2022/12/12 01:40:53;;;;;;;22.58;13.13;;;-0.60;99.90;;;;;;5092197;28;20773;-80
2022/12/12 01:43:24;;;;;;;23.77;14.00;;;-0.60;99.90;;;;;;5093706;28;20295;-81
2022/12/12 01:46:40;;;;;;;19.27;13.07;;;-0.70;99.90;;;;;;5088422;28;20200;-80
2022/12/12 01:49:17;;;;;;;19.23;12.95;;;-0.70;99.90;;;;;;5100252;28;20207;-79
2022/12/12 01:51:47;;;;;;;17.75;12.38;;;-0.70;99.90;;;;;;5095432;28;20708;-79
2022/12/12 01:54:22;;;;;;;22.30;12.45;;;-0.80;99.90;;;;;;5096731;27;20253;-79
2022/12/12 01:56:52;;;;;;;26.13;15.60;;;-0.80;99.90;;;;;;5100255;27;20272;-80
2022/12/12 01:59:23;;;;;;;21.35;13.45;;;-0.80;99.90;;;;;;5108128;27;20214;-80
2022/12/12 02:01:52;;;;;;;16.80;11.45;;;-0.80;99.90;;;;;;5101020;27;20191;-79
2022/12/12 02:04:21;;;;;;;19.15;12.98;;;-0.80;99.90;;;;;;5106267;27;20667;-80
2022/12/12 02:06:51;;;;;;;22.67;14.27;;;-0.90;99.90;;;;;;5098036;28;20564;-79
2022/12/12 02:09:23;;;;;;;18.65;12.40;;;-0.90;99.90;;;;;;5098022;27;20188;-81
2022/12/12 02:11:53;;;;;;;17.67;11.75;;;-0.90;99.90;;;;;;5100636;28;20238;-80
2022/12/12 02:14:25;;;;;;;20.92;12.40;;;-0.90;99.90;;;;;;5102256;27;20275;-78
2022/12/12 02:17:34;;;;;;;20.13;13.18;;;-1.00;99.90;;;;;;5096583;28;20208;-80
2022/12/12 02:20:38;;;;;;;18.38;13.18;;;-1.00;99.90;;;;;;5096876;28;20200;-79
2022/12/12 02:23:45;;;;;;;18.85;12.55;;;-1.10;99.90;;;;;;5103868;27;20779;-79
2022/12/12 02:26:55;;;;;;;18.35;12.05;;;-1.10;1.00;;;;;;5103544;27;20198;-80
2022/12/12 02:30:05;;;;;;;22.10;13.40;;;-1.10;99.90;;;;;;5103249;27;20199;-78
2022/12/12 02:33:03;;;;;;;19.40;12.70;;;-1.10;1.00;;;;;;5102775;27;20219;-80
2022/12/12 02:35:41;;;;;;;23.58;14.90;;;-1.10;1.00;;;;;;5098652;27;20680;-80
2022/12/12 02:38:17;;;;;;;24.73;15.38;;;-1.00;99.90;;;;;;5098017;28;20195;-80
2022/12/12 02:40:48;;;;;;;18.45;13.45;;;-1.00;99.90;;;;;;5100444;27;20211;-81
2022/12/12 02:43:22;;;;;;;27.67;15.27;;;-1.00;1.00;;;;;;5104153;27;20280;-80
2022/12/12 02:45:55;;;;;;;22.30;15.68;;;-0.90;99.90;;;;;;5098895;28;20191;-79
2022/12/12 02:48:28;;;;;;;27.05;17.85;;;-0.90;1.00;;;;;;5102147;28;20242;-80
2022/12/12 02:51:00;;;;;;;22.15;13.88;;;-1.00;1.00;;;;;;5095106;27;20215;-81
2022/12/12 02:53:28;;;;;;;29.13;16.13;;;-0.90;4.20;;;;;;5110913;27;20234;-80
2022/12/12 02:56:08;;;;;;;24.13;14.75;;;-1.00;99.90;;;;;;5098686;27;20204;-80
2022/12/12 02:58:38;;;;;;;19.58;13.32;;;-1.00;1.00;;;;;;5098164;27;20206;-79
2022/12/12 03:01:18;;;;;;;22.95;14.20;;;-1.00;1.00;;;;;;5103699;27;20666;-81
2022/12/12 03:09:51;;;;;;;21.33;16.00;;;-1.20;1.00;;;;;;5096941;27;20211;-81
2022/12/12 03:12:27;;;;;;;21.83;15.57;;;-1.30;1.00;;;;;;5101594;27;20258;-78
2022/12/12 03:15:01;;;;;;;22.98;14.90;;;-1.30;1.00;;;;;;5097262;28;20187;-81
2022/12/12 03:17:36;;;;;;;25.60;14.95;;;-1.40;1.00;;;;;;5102635;27;20218;-80
2022/12/12 03:20:14;;;;;;;25.15;15.90;;;-1.40;1.00;;;;;;5099527;27;20199;-80
2022/12/12 03:22:50;;;;;;;22.33;14.65;;;-1.40;1.00;;;;;;5102977;28;20217;-80
2022/12/12 03:25:23;;;;;;;20.50;13.90;;;-1.40;1.00;;;;;;5103884;27;20286;-78
2022/12/12 03:27:58;;;;;;;24.75;15.50;;;-1.40;12.30;;;;;;5098236;27;20704;-81
2022/12/12 03:30:29;;;;;;;24.52;15.40;;;-1.50;63.90;;;;;;5099412;28;20286;-81
2022/12/12 03:33:02;;;;;;;23.35;16.75;;;-1.30;99.90;;;;;;5102682;27;20227;-80
2022/12/12 03:35:36;;;;;;;22.63;15.88;;;-1.30;31.10;;;;;;5097377;27;20211;-79
2022/12/12 03:38:11;;;;;;;27.38;16.67;;;-1.30;1.00;;;;;;5102268;27;20662;-80
2022/12/12 03:40:46;;;;;;;25.15;16.33;;;-1.00;1.00;;;;;;5098517;27;20242;-80
2022/12/12 03:43:17;;;;;;;24.55;16.55;;;-1.00;60.10;;;;;;5098776;28;20268;-79
2022/12/12 03:45:53;;;;;;;24.10;14.95;;;-1.10;15.50;;;;;;5093127;28;20191;-79
2022/12/12 03:48:27;;;;;;;22.08;14.52;;;-1.10;96.70;;;;;;5103747;27;20616;-79
2022/12/12 03:51:04;;;;;;;23.55;16.23;;;-1.10;99.90;;;;;;5095266;28;20207;-80
2022/12/12 03:53:37;;;;;;;25.65;16.38;;;-1.20;81.00;;;;;;5091210;28;20229;-80
2022/12/12 03:56:12;;;;;;;24.55;16.88;;;-1.00;55.80;;;;;;5099582;28;20544;-80
2022/12/12 03:58:45;;;;;;;23.08;17.33;;;-1.20;99.90;;;;;;5091818;28;20269;-80
2022/12/12 04:01:15;;;;;;;24.23;16.90;;;-1.20;1.00;;;;;;5099666;28;20207;-80
2022/12/12 04:03:53;;;;;;;28.20;16.23;;;-1.10;99.90;;;;;;5095803;27;20284;-78
2022/12/12 04:06:29;;;;;;;25.55;16.92;;;-1.20;1.00;;;;;;5096611;28;20815;-80
2022/12/12 04:15:11;;;;;;;21.33;14.50;;;-1.40;99.90;;;;;;5096152;28;20478;-80
2022/12/12 04:17:43;;;;;;;27.48;17.80;;;-1.20;1.00;;;;;;5098281;28;20195;-80
2022/12/12 04:23:17;;;;;;;29.13;17.33;;;-1.40;1.00;;;;;;5096258;28;20245;-79
2022/12/12 04:28:51;;;;;;;22.42;14.80;;;-1.50;1.00;;;;;;5096379;28;20192;-78
2022/12/12 04:31:23;;;;;;;27.92;16.23;;;-1.30;1.00;;;;;;5092305;27;20227;-79
2022/12/12 04:33:55;;;;;;;23.27;14.68;;;-1.40;1.00;;;;;;5097186;28;20230;-79
2022/12/12 04:36:24;;;;;;;23.30;16.23;;;-1.50;1.00;;;;;;5096320;28;20291;-79
2022/12/12 04:38:55;;;;;;;23.75;15.45;;;-1.20;1.00;;;;;;5091662;28;20237;-80
2022/12/12 04:41:26;;;;;;;23.00;15.10;;;-1.20;99.90;;;;;;5100569;27;20241;-80
2022/12/12 04:43:57;;;;;;;29.38;16.73;;;-1.30;99.90;;;;;;5096264;28;20215;-79
2022/12/12 04:46:28;;;;;;;25.52;16.77;;;-1.40;99.90;;;;;;5097794;28;20539;-80
2022/12/12 04:49:00;;;;;;;26.80;16.05;;;-1.30;99.90;;;;;;5097660;27;20215;-80
2022/12/12 04:51:31;;;;;;;24.70;14.10;;;-1.40;99.90;;;;;;5101816;27;20195;-80
2022/12/12 04:54:06;;;;;;;23.90;16.10;;;-1.40;1.00;;;;;;5095320;28;20219;-78
2022/12/12 04:56:38;;;;;;;23.38;15.38;;;-1.40;1.00;;;;;;5095301;28;20212;-80
2022/12/12 04:59:07;;;;;;;24.23;15.82;;;-1.40;99.90;;;;;;5095572;28;20211;-78
2022/12/12 05:01:46;;;;;;;23.75;15.68;;;-1.40;99.90;;;;;;5090854;28;20203;-79
2022/12/12 05:04:24;;;;;;;22.35;14.70;;;-1.30;99.90;;;;;;5094498;28;20188;-78
2022/12/12 05:06:57;;;;;;;23.92;16.63;;;-1.30;88.50;;;;;;5097910;28;20195;-79
2022/12/12 05:09:28;;;;;;;20.52;14.32;;;-1.30;99.90;;;;;;5094641;28;20240;-79
2022/12/12 05:11:56;;;;;;;20.92;14.80;;;-1.50;99.90;;;;;;5093208;28;20350;-78
2022/12/12 05:14:24;;;;;;;23.98;14.73;;;-1.40;99.90;;;;;;5094544;27;20530;-80
2022/12/12 05:16:56;;;;;;;26.35;16.33;;;-1.40;99.90;;;;;;5093811;27;20200;-79
2022/12/12 05:19:25;;;;;;;24.70;15.90;;;-1.50;99.90;;;;;;5093682;28;20207;-79
2022/12/12 05:21:53;;;;;;;21.73;14.52;;;-1.30;99.90;;;;;;5096478;27;20249;-78
2022/12/12 05:24:21;;;;;;;21.58;14.27;;;-1.40;99.90;;;;;;5088286;28;20541;-79
2022/12/12 05:26:50;;;;;;;24.50;15.82;;;-1.40;99.90;;;;;;5095347;28;20192;-78
2022/12/12 05:29:18;;;;;;;20.75;14.48;;;-1.40;99.90;;;;;;5091760;28;20202;-80
2022/12/12 05:31:46;;;;;;;23.60;15.70;;;-1.40;99.90;;;;;;5091889;28;20199;-80
2022/12/12 05:34:15;;;;;;;27.13;15.50;;;-1.50;99.90;;;;;;5094592;28;20222;-80
2022/12/12 05:36:43;;;;;;;26.40;16.25;;;-1.50;99.90;;;;;;5093552;28;20214;-78
2022/12/12 05:39:11;;;;;;;21.40;14.80;;;-1.60;99.90;;;;;;5091634;28;20837;-79
2022/12/12 05:41:39;;;;;;;24.10;15.80;;;-1.60;1.00;;;;;;5096564;28;20191;-79
2022/12/12 05:44:08;;;;;;;22.98;15.60;;;-1.60;1.00;;;;;;5093051;28;20264;-77
2022/12/12 05:46:37;;;;;;;23.00;14.27;;;-1.40;99.90;;;;;;5094491;28;20221;-80
2022/12/12 05:49:05;;;;;;;23.90;14.50;;;-1.60;99.90;;;;;;5096338;28;20203;-79
2022/12/12 05:51:33;;;;;;;24.35;15.13;;;-1.60;99.90;;;;;;5099406;28;20261;-80
2022/12/12 05:54:01;;;;;;;18.27;14.55;;;-1.60;99.90;;;;;;5095187;28;20215;-79
2022/12/12 05:56:29;;;;;;;25.75;17.35;;;-1.50;99.90;;;;;;5097804;28;20187;-79
2022/12/12 05:58:57;;;;;;;23.20;14.48;;;-1.60;99.90;;;;;;5094622;28;20234;-78
2022/12/12 06:01:27;;;;;;;24.80;14.80;;;-1.50;1.00;;;;;;5094796;28;20252;-79
2022/12/12 06:03:55;;;;;;;26.65;15.93;;;-1.60;99.90;;;;;;5095368;28;20211;-78
2022/12/12 06:06:23;;;;;;;24.48;17.48;;;-1.40;99.90;;;;;;5089593;28;20614;-79
2022/12/12 06:08:51;;;;;;;19.38;14.23;;;-1.40;99.90;;;;;;5090988;28;20200;-80
2022/12/12 06:11:19;;;;;;;24.38;17.27;;;-1.40;99.90;;;;;;5091448;28;20195;-80
2022/12/12 06:13:47;;;;;;;25.10;16.55;;;-1.30;1.00;;;;;;5096663;28;20246;-78
2022/12/12 06:16:18;;;;;;;21.20;13.88;;;-1.30;99.90;;;;;;5093744;28;20228;-80
2022/12/12 06:18:52;;;;;;;26.15;15.75;;;-1.40;99.90;;;;;;5089306;28;20659;-81
2022/12/12 06:21:21;;;;;;;25.23;15.63;;;-1.30;99.90;;;;;;5093398;28;20748;-79
2022/12/12 06:23:50;;;;;;;25.25;17.00;;;-1.40;99.90;;;;;;5088035;28;20215;-78
2022/12/12 06:26:20;;;;;;;28.83;16.65;;;-1.70;99.90;;;;;;5084131;28;20200;-79
2022/12/12 06:28:48;;;;;;;27.65;19.80;;;-1.70;1.00;;;;;;5093576;28;20654;-79
2022/12/12 06:31:17;;;;;;;38.95;20.98;;;-1.60;1.00;;;;;;5088344;28;20322;-78
2022/12/12 06:33:46;;;;;;;25.45;15.57;;;-1.50;1.00;;;;;;5089280;28;20300;-78
2022/12/12 06:36:22;;;;;;;23.98;17.27;;;-1.30;99.90;;;;;;5083404;28;20196;-79
2022/12/12 06:38:51;;;;;;;21.30;15.95;;;-1.50;99.90;;;;;;5094942;27;20648;-81
2022/12/12 06:41:20;;;;;;;25.23;14.95;;;-1.50;99.90;;;;;;5094921;28;20588;-78
2022/12/12 06:43:48;;;;;;;28.58;19.25;;;-1.50;99.90;;;;;;5086514;28;20219;-79
2022/12/12 06:46:18;;;;;;;24.70;15.23;;;-1.60;1.00;;;;;;5087164;28;20494;-80
2022/12/12 06:48:47;;;;;;;25.20;16.27;;;-1.50;1.00;;;;;;5092261;28;20845;-79
2022/12/12 06:51:19;;;;;;;22.27;14.02;;;-1.60;99.90;;;;;;5091156;28;20220;-79
2022/12/12 06:53:47;;;;;;;20.48;14.55;;;-1.60;1.00;;;;;;5089241;27;20727;-78
2022/12/12 06:56:17;;;;;;;21.45;15.73;;;-1.50;99.90;;;;;;5097608;28;20180;-78
2022/12/12 06:58:46;;;;;;;19.92;14.25;;;-1.40;99.90;;;;;;5102418;27;20252;-79
2022/12/12 07:01:17;;;;;;;19.92;15.05;;;-1.50;99.90;;;;;;5102000;28;20542;-79
2022/12/12 07:03:46;;;;;;;20.90;14.73;;;-1.40;99.90;;;;;;5096930;28;20767;-79
2022/12/12 07:06:16;;;;;;;22.42;14.00;;;-1.40;99.90;;;;;;5100322;28;20586;-79
2022/12/12 07:08:45;;;;;;;18.70;12.77;;;-1.30;1.00;;;;;;5099183;28;20195;-78
2022/12/12 07:11:15;;;;;;;19.75;13.88;;;-1.30;99.90;;;;;;5103996;28;20203;-78
2022/12/12 07:13:43;;;;;;;22.73;14.02;;;-1.20;1.00;;;;;;5098706;28;20215;-78
2022/12/12 07:16:12;;;;;;;23.40;15.00;;;-1.20;1.00;;;;;;5103280;28;20265;-80
2022/12/12 07:18:40;;;;;;;25.77;18.90;;;-1.30;1.00;;;;;;5108817;28;20480;-78
2022/12/12 07:21:11;;;;;;;24.95;15.02;;;-1.60;99.90;;;;;;5102677;28;20820;-79
2022/12/12 07:23:41;;;;;;;19.80;13.43;;;-1.50;99.90;;;;;;5104813;27;20219;-79
2022/12/12 07:26:12;;;;;;;19.55;14.95;;;-1.40;99.90;;;;;;5099310;28;20210;-79
2022/12/12 07:28:41;;;;;;;18.95;13.98;;;-1.50;73.50;;;;;;5099192;28;20211;-79
2022/12/12 07:31:12;;;;;;;18.02;13.77;;;-1.50;99.90;;;;;;5094882;28;20231;-80
2022/12/12 07:33:41;;;;;;;16.38;13.48;;;-1.50;99.90;;;;;;5100256;28;20223;-80
2022/12/12 07:36:12;;;;;;;19.10;13.57;;;-1.30;29.30;;;;;;5097469;28;20274;-80
2022/12/12 07:38:42;;;;;;;19.40;13.38;;;-1.30;23.80;;;;;;5105767;28;20192;-78
2022/12/12 07:41:12;;;;;;;18.98;13.40;;;-1.30;47.90;;;;;;5100082;28;20214;-79
2022/12/12 07:43:42;;;;;;;22.92;14.85;;;-1.30;75.60;;;;;;5096141;28;20212;-79
2022/12/12 07:46:14;;;;;;;20.67;15.13;;;-1.30;1.00;;;;;;5100250;28;20203;-79
2022/12/12 07:48:43;;;;;;;23.02;14.65;;;-1.50;33.20;;;;;;5099151;28;20221;-77
2022/12/12 07:51:11;;;;;;;19.38;13.65;;;-1.30;17.10;;;;;;5099122;27;20681;-79
2022/12/12 07:53:41;;;;;;;25.08;15.15;;;-1.40;1.00;;;;;;5101577;28;20282;-79
2022/12/12 07:56:12;;;;;;;20.60;13.57;;;-1.50;1.00;;;;;;5099536;28;20204;-78
2022/12/12 07:58:40;;;;;;;22.45;13.93;;;-1.60;1.00;;;;;;5089404;28;20357;-78
2022/12/12 08:01:10;;;;;;;23.55;15.02;;;-1.40;99.90;;;;;;5092874;28;20198;-80
2022/12/12 08:03:43;;;;;;;19.02;13.48;;;-1.30;99.90;;;;;;5094171;28;20228;-80
2022/12/12 08:06:12;;;;;;;25.13;14.70;;;-1.40;18.30;;;;;;5096536;28;20196;-80
2022/12/12 08:08:41;;;;;;;21.45;14.30;;;-1.30;1.00;;;;;;5098585;28;20214;-80
2022/12/12 08:11:11;;;;;;;21.63;13.88;;;-1.30;83.00;;;;;;5090072;28;20230;-77
2022/12/12 08:13:40;;;;;;;19.38;13.57;;;-1.10;1.00;;;;;;5092406;27;20916;-78
2022/12/12 08:16:14;;;;;;;18.65;14.10;;;-1.20;1.00;;;;;;5091899;28;20202;-80
2022/12/12 08:18:43;;;;;;;19.85;14.70;;;-1.20;6.10;;;;;;5090531;28;20196;-80
2022/12/12 08:21:13;;;;;;;19.20;13.40;;;-1.10;1.00;;;;;;5095463;28;20195;-78
2022/12/12 08:23:46;;;;;;;20.27;14.05;;;-1.20;1.00;;;;;;5086126;28;20234;-79
2022/12/12 08:26:16;;;;;;;19.38;13.23;;;-1.30;70.20;;;;;;5093783;28;20244;-80
2022/12/12 08:28:48;;;;;;;18.55;13.23;;;-1.30;1.00;;;;;;5090193;28;20249;-77
2022/12/12 08:31:16;;;;;;;21.55;14.77;;;-1.20;1.00;;;;;;5091737;28;20231;-78
2022/12/12 08:33:45;;;;;;;25.10;15.45;;;-1.10;1.00;;;;;;5088458;28;20216;-79
2022/12/12 08:36:16;;;;;;;24.02;14.30;;;-1.30;1.00;;;;;;5089191;28;20204;-79
2022/12/12 08:38:46;;;;;;;19.58;13.95;;;-1.30;1.00;;;;;;5086278;28;20200;-81
2022/12/12 08:41:16;;;;;;;23.92;15.30;;;-1.20;1.00;;;;;;5084621;28;20480;-79
2022/12/12 08:43:44;;;;;;;22.83;15.73;;;-1.30;1.00;;;;;;5085986;28;20216;-79
2022/12/12 08:46:14;;;;;;;20.63;14.32;;;-1.20;1.00;;;;;;5082876;28;20262;-77
2022/12/12 08:48:46;;;;;;;23.73;16.30;;;-1.00;99.90;;;;;;5082209;28;20582;-79
2022/12/12 08:51:15;;;;;;;24.17;14.10;;;-0.90;1.00;;;;;;5090810;28;20588;-79
2022/12/12 08:53:45;;;;;;;23.88;17.10;;;-0.80;1.00;;;;;;5091317;28;20480;-78
2022/12/12 08:56:14;;;;;;;21.60;15.02;;;-0.90;99.90;;;;;;5091674;28;20762;-79
2022/12/12 08:58:43;;;;;;;20.75;14.40;;;-0.70;1.00;;;;;;5089093;28;20238;-76
2022/12/12 09:01:12;;;;;;;20.00;14.43;;;-0.50;1.00;;;;;;5092930;28;20287;-79
2022/12/12 09:03:40;;;;;;;23.00;13.32;;;-0.40;1.00;;;;;;5093490;28;20239;-77
2022/12/12 09:06:09;;;;;;;20.40;13.60;;;-0.40;99.90;;;;;;5091042;28;20250;-77
2022/12/12 09:08:37;;;;;;;20.80;14.98;;;-0.50;99.90;;;;;;5098341;28;20207;-79
2022/12/12 09:11:09;;;;;;;20.33;14.32;;;-0.70;99.90;;;;;;5088622;28;20198;-79
2022/12/12 09:13:37;;;;;;;19.23;14.30;;;-0.70;99.90;;;;;;5088904;28;20258;-77
2022/12/12 09:16:07;;;;;;;19.55;14.50;;;-0.50;1.00;;;;;;5084972;28;20277;-78
2022/12/12 09:18:36;;;;;;;19.33;13.65;;;-0.30;99.90;;;;;;5094240;27;20202;-77
2022/12/12 09:21:11;;;;;;;18.17;13.88;;;-0.30;99.90;;;;;;5088727;28;20281;-78
2022/12/12 09:23:39;;;;;;;21.35;15.98;;;-0.50;99.90;;;;;;5089376;28;20243;-77
2022/12/12 09:26:10;;;;;;;23.10;13.63;;;-0.40;99.90;;;;;;5095087;28;20199;-78
2022/12/12 09:28:39;;;;;;;20.50;13.70;;;-0.50;99.90;;;;;;5088886;28;20195;-79
2022/12/12 09:31:09;;;;;;;21.50;14.07;;;-0.40;99.90;;;;;;5089684;28;20206;-78
2022/12/12 09:33:38;;;;;;;18.13;12.77;;;-0.50;99.90;;;;;;5087747;28;20231;-78
2022/12/12 09:36:07;;;;;;;20.20;13.75;;;-0.40;99.90;;;;;;5089766;28;20207;-78
2022/12/12 09:38:36;;;;;;;22.30;12.65;;;-0.40;99.90;;;;;;5095763;28;20217;-78
2022/12/12 09:41:14;;;;;;;26.90;16.58;;;-0.20;99.90;;;;;;5095762;28;20215;-79
2022/12/12 09:43:50;;;;;;;22.52;12.43;;;-0.50;99.90;;;;;;5093174;28;20225;-78
2022/12/12 09:46:41;;;;;;;21.63;15.23;;;-0.10;99.90;;;;;;5094213;28;20197;-79
2022/12/12 09:49:15;;;;;;;26.15;13.75;;;-0.10;34.50;;;;;;5091866;28;20210;-77
2022/12/12 09:51:47;;;;;;;17.52;13.68;;;-0.30;64.90;;;;;;5088463;28;20195;-78
2022/12/12 09:54:19;;;;;;;20.02;13.55;;;-0.30;99.90;;;;;;5088890;28;20587;-81
2022/12/12 09:57:04;;;;;;;19.27;13.02;;;-0.20;99.90;;;;;;5093658;28;20257;-77
2022/12/12 09:59:40;;;;;;;20.98;12.77;;;0.00;46.00;;;;;;5092669;28;20248;-79
2022/12/12 10:02:37;;;;;;;21.52;13.43;;;0.00;1.00;;;;;;5099657;28;20218;-78
2022/12/12 10:05:29;;;;;;;19.55;12.88;;;-0.20;4.80;;;;;;5093932;28;20199;-78
2022/12/12 10:08:04;;;;;;;16.95;12.52;;;-0.20;35.30;;;;;;5091157;28;20258;-79
2022/12/12 10:10:36;;;;;;;21.33;15.23;;;0.00;1.00;;;;;;5094393;28;20274;-79
2022/12/12 10:13:14;;;;;;;17.98;12.15;;;0.10;1.00;;;;;;5091048;28;20218;-79
2022/12/12 10:15:44;;;;;;;17.23;11.30;;;0.10;1.00;;;;;;5097176;28;20226;-76
2022/12/12 10:18:17;;;;;;;18.02;10.88;;;0.10;1.00;;;;;;5093538;28;20184;-78
2022/12/12 10:20:49;;;;;;;17.05;10.48;;;0.10;1.00;;;;;;5094436;28;20198;-78
2022/12/12 10:23:24;;;;;;;13.82;10.05;;;0.20;1.00;;;;;;5091207;28;20223;-79
2022/12/12 10:25:56;;;;;;;17.60;10.35;;;0.30;1.00;;;;;;5096575;28;20235;-78
2022/12/12 10:28:27;;;;;;;13.48;9.98;;;0.40;1.00;;;;;;5095941;28;20249;-77
2022/12/12 10:31:07;;;;;;;16.80;10.35;;;0.40;1.00;;;;;;5099021;28;20659;-79
2022/12/12 10:33:47;;;;;;;17.77;9.43;;;0.70;1.00;;;;;;5098456;28;20219;-80
2022/12/12 10:36:24;;;;;;;12.57;9.23;;;0.90;1.00;;;;;;5099686;28;20212;-79
2022/12/12 10:39:08;;;;;;;13.73;8.57;;;1.20;1.00;;;;;;5097785;28;20668;-78
2022/12/12 10:41:44;;;;;;;14.00;9.50;;;1.40;99.90;;;;;;5094649;28;20676;-80
2022/12/12 10:44:26;;;;;;;13.40;9.07;;;1.30;99.90;;;;;;5097937;28;20233;-80
2022/12/12 10:47:00;;;;;;;16.25;10.82;;;1.30;99.90;;;;;;5080997;28;20290;-80
2022/12/12 10:49:30;;;;;;;15.20;9.73;;;1.10;99.90;;;;;;5096678;28;20290;-78
2022/12/12 10:52:03;;;;;;;14.50;10.38;;;1.70;99.90;;;;;;5095400;28;20205;-80
2022/12/12 10:54:37;;;;;;;15.93;9.55;;;2.20;99.90;;;;;;5096699;28;20285;-80
2022/12/12 10:57:13;;;;;;;13.82;9.88;;;2.40;99.90;;;;;;5092435;28;20242;-79
2022/12/12 10:59:50;;;;;;;14.98;9.90;;;2.90;99.90;;;;;;5090630;28;20195;-80
2022/12/12 11:02:36;;;;;;;15.45;10.00;;;3.20;99.90;;;;;;5089187;28;20221;-80
2022/12/12 11:05:18;;;;;;;10.70;8.18;;;3.00;99.90;;;;;;5084466;28;20225;-80
2022/12/12 11:07:48;;;;;;;12.63;8.45;;;3.50;99.90;;;;;;5096240;28;20222;-78
2022/12/12 11:10:26;;;;;;;11.25;8.82;;;3.60;99.90;;;;;;5090441;28;20203;-79
2022/12/12 11:13:03;;;;;;;11.43;8.95;;;3.90;99.90;;;;;;5092329;28;20222;-80
2022/12/12 11:15:39;;;;;;;10.57;9.23;;;3.80;99.90;;;;;;5092577;28;20313;-82
2022/12/12 11:18:14;;;;;;;11.00;8.60;;;3.50;99.90;;;;;;5092554;28;20547;-81
2022/12/12 11:20:48;;;;;;;9.98;7.30;;;3.60;99.90;;;;;;5089264;28;20596;-81
2022/12/12 11:23:22;;;;;;;12.98;8.57;;;3.80;99.90;;;;;;5089079;28;20330;-79
2022/12/12 11:25:56;;;;;;;10.60;8.60;;;3.50;99.90;;;;;;5096300;27;20188;-79
2022/12/12 11:28:27;;;;;;;9.05;6.78;;;3.50;99.90;;;;;;5097476;28;20210;-80
2022/12/12 11:31:01;;;;;;;10.48;7.55;;;3.50;99.90;;;;;;5092863;28;20199;-81
2022/12/12 11:33:33;;;;;;;11.50;7.63;;;3.50;99.90;;;;;;5094040;27;20421;-79
2022/12/12 11:36:05;;;;;;;6.30;5.70;;;3.70;99.90;;;;;;5090363;28;20218;-82
2022/12/12 11:38:39;;;;;;;6.78;5.95;;;3.30;99.90;;;;;;5093802;28;20735;-80
2022/12/12 11:41:09;;;;;;;11.23;6.40;;;3.30;99.90;;;;;;5099323;28;20210;-79
2022/12/12 11:43:52;;;;;;;10.55;5.88;;;3.40;99.90;;;;;;5095742;28;20693;-79
2022/12/12 11:46:25;;;;;;;7.25;5.13;;;3.40;99.90;;;;;;5096534;28;20192;-80
2022/12/12 11:49:02;;;;;;;5.75;4.05;;;3.30;99.90;;;;;;5092240;27;20210;-78
2022/12/12 11:51:36;;;;;;;6.88;5.20;;;3.00;99.90;;;;;;5079344;28;20241;-77
2022/12/12 11:54:11;;;;;;;10.00;6.70;;;2.80;99.90;;;;;;5083718;28;20224;-77
2022/12/12 11:56:50;;;;;;;9.40;7.18;;;2.70;99.90;;;;;;5090078;27;20436;-80
2022/12/12 11:59:46;;;;;;;7.53;5.32;;;2.70;99.90;;;;;;5101852;28;20209;-81
2022/12/12 12:02:54;;;;;;;10.15;5.80;;;3.00;99.90;;;;;;5103241;28;20577;-80
2022/12/12 12:05:32;;;;;;;5.78;5.03;;;3.20;99.90;;;;;;5080771;28;20206;-79
2022/12/12 12:08:14;;;;;;;6.72;6.13;;;3.40;99.90;;;;;;5094805;28;20211;-80
2022/12/12 12:10:54;;;;;;;6.25;5.22;;;3.40;99.90;;;;;;5092865;28;20209;-79
2022/12/12 12:13:39;;;;;;;6.70;5.30;;;3.40;99.90;;;;;;5093190;28;20219;-77
2022/12/12 12:16:20;;;;;;;9.32;6.35;;;3.50;99.90;;;;;;5091271;28;20305;-80
2022/12/12 12:18:58;;;;;;;26.80;6.68;;;3.40;99.90;;;;;;5088462;28;20236;-86
2022/12/12 12:21:29;;;;;;;7.00;5.65;;;3.40;99.90;;;;;;5107593;27;21749;-81
2022/12/12 12:24:11;;;;;;;5.93;4.90;;;3.50;99.90;;;;;;5091993;28;20289;-79
2022/12/12 12:26:47;;;;;;;5.50;4.10;;;3.50;99.90;;;;;;5091154;27;20238;-82
2022/12/12 12:29:46;;;;;;;6.60;6.00;;;3.40;99.90;;;;;;5092327;28;20201;-80
2022/12/12 12:32:22;;;;;;;6.55;4.10;;;3.30;99.90;;;;;;5084832;28;20297;-81
2022/12/12 12:35:06;;;;;;;7.18;4.55;;;3.60;99.90;;;;;;5086523;28;20193;-81
2022/12/12 12:37:45;;;;;;;4.85;4.35;;;3.50;99.90;;;;;;5086711;28;20217;-81
2022/12/12 12:40:26;;;;;;;5.78;4.50;;;3.60;99.90;;;;;;5084998;28;20680;-80
2022/12/12 12:43:22;;;;;;;4.43;4.00;;;3.60;99.90;;;;;;5089839;28;20218;-79
2022/12/12 12:45:56;;;;;;;6.00;4.50;;;3.40;99.90;;;;;;5092305;28;20285;-79
2022/12/12 12:48:30;;;;;;;7.93;5.35;;;3.50;99.90;;;;;;5091795;28;20206;-80
2022/12/12 12:51:08;;;;;;;5.88;4.97;;;3.50;99.90;;;;;;5086890;28;20279;-80
2022/12/12 12:53:42;;;;;;;6.10;4.10;;;3.70;99.90;;;;;;5093794;27;20233;-80
2022/12/12 12:56:19;;;;;;;5.88;4.18;;;3.80;99.90;;;;;;5097608;28;20211;-82
2022/12/12 12:58:56;;;;;;;4.88;4.47;;;3.70;99.90;;;;;;5096225;28;20983;-80
2022/12/12 13:01:29;;;;;;;6.57;4.45;;;3.70;99.90;;;;;;5094702;28;20233;-80
2022/12/12 13:04:03;;;;;;;5.28;3.65;;;3.70;99.90;;;;;;5102480;28;20281;-80
2022/12/12 13:06:42;;;;;;;4.25;3.70;;;3.50;99.90;;;;;;5102465;28;20282;-80
2022/12/12 13:09:21;;;;;;;3.55;3.25;;;3.60;99.90;;;;;;5099568;28;20194;-81
2022/12/12 13:11:53;;;;;;;4.20;3.30;;;3.50;99.90;;;;;;5097973;28;20210;-80
2022/12/12 13:14:37;;;;;;;3.42;2.05;;;3.50;99.90;;;;;;5095488;28;20214;-82
2022/12/12 13:17:12;;;;;;;3.35;3.05;;;3.60;99.90;;;;;;5090584;28;20467;-82
2022/12/12 13:19:44;;;;;;;5.10;3.38;;;3.30;99.90;;;;;;5092157;28;20281;-82
2022/12/12 13:22:19;;;;;;;3.25;2.92;;;3.60;99.90;;;;;;5094604;28;20282;-81
2022/12/12 13:24:54;;;;;;;4.78;2.50;;;3.50;99.90;;;;;;5098818;28;20208;-82